sensor_id;sensor_type;location;lat;lon;timestamp;P1;durP1;ratioP1;P2;durP2;ratioP2
42602;SDS011;28233;55.748;48.752;2022-12-18T00:02:00;44.15;;;20.52;;
42602;SDS011;28233;55.748;48.752;2022-12-18T00:04:06;45.45;;;19.88;;
42602;SDS011;28233;55.748;48.752;2022-12-18T00:06:18;39.50;;;17.45;;
42602;SDS011;28233;55.748;48.752;2022-12-18T00:08:21;41.20;;;19.23;;
42602;SDS011;28233;55.748;48.752;2022-12-18T00:10:24;44.65;;;17.33;;
42602;SDS011;28233;55.748;48.752;2022-12-18T00:12:27;44.63;;;19.23;;
42602;SDS011;28233;55.748;48.752;2022-12-18T00:14:31;52.78;;;18.23;;
42602;SDS011;28233;55.748;48.752;2022-12-18T00:16:33;41.47;;;19.38;;
42602;SDS011;28233;55.748;48.752;2022-12-18T00:18:39;40.75;;;17.48;;
42602;SDS011;28233;55.748;48.752;2022-12-18T00:20:43;61.78;;;18.67;;
42602;SDS011;28233;55.748;48.752;2022-12-18T00:22:45;42.78;;;17.90;;
42602;SDS011;28233;55.748;48.752;2022-12-18T00:24:48;162.10;;;32.10;;
42602;SDS011;28233;55.748;48.752;2022-12-18T00:26:50;50.22;;;21.27;;
42602;SDS011;28233;55.748;48.752;2022-12-18T00:28:53;125.40;;;26.33;;
42602;SDS011;28233;55.748;48.752;2022-12-18T00:30:59;55.03;;;21.40;;
42602;SDS011;28233;55.748;48.752;2022-12-18T00:33:03;45.63;;;19.40;;
42602;SDS011;28233;55.748;48.752;2022-12-18T00:35:06;47.58;;;18.23;;
42602;SDS011;28233;55.748;48.752;2022-12-18T00:37:09;68.32;;;23.17;;
42602;SDS011;28233;55.748;48.752;2022-12-18T00:39:19;50.30;;;20.52;;
42602;SDS011;28233;55.748;48.752;2022-12-18T00:41:21;44.47;;;18.10;;
42602;SDS011;28233;55.748;48.752;2022-12-18T00:43:43;39.50;;;15.43;;
42602;SDS011;28233;55.748;48.752;2022-12-18T00:45:45;63.47;;;21.90;;
42602;SDS011;28233;55.748;48.752;2022-12-18T00:47:48;77.13;;;22.98;;
42602;SDS011;28233;55.748;48.752;2022-12-18T00:49:51;67.60;;;20.70;;
42602;SDS011;28233;55.748;48.752;2022-12-18T00:51:56;49.33;;;18.70;;
42602;SDS011;28233;55.748;48.752;2022-12-18T00:53:59;69.78;;;23.80;;
42602;SDS011;28233;55.748;48.752;2022-12-18T00:56:02;58.90;;;21.33;;
42602;SDS011;28233;55.748;48.752;2022-12-18T00:58:04;52.95;;;20.75;;
42602;SDS011;28233;55.748;48.752;2022-12-18T01:00:10;54.58;;;20.80;;
42602;SDS011;28233;55.748;48.752;2022-12-18T01:02:15;60.35;;;21.33;;
42602;SDS011;28233;55.748;48.752;2022-12-18T01:04:18;42.75;;;17.23;;
42602;SDS011;28233;55.748;48.752;2022-12-18T01:06:21;60.42;;;21.15;;
42602;SDS011;28233;55.748;48.752;2022-12-18T01:08:24;48.38;;;17.83;;
42602;SDS011;28233;55.748;48.752;2022-12-18T01:10:27;56.22;;;18.92;;
42602;SDS011;28233;55.748;48.752;2022-12-18T01:12:29;48.92;;;17.55;;
42602;SDS011;28233;55.748;48.752;2022-12-18T01:14:32;49.80;;;18.42;;
42602;SDS011;28233;55.748;48.752;2022-12-18T01:16:34;62.63;;;19.50;;
42602;SDS011;28233;55.748;48.752;2022-12-18T01:18:37;46.85;;;18.05;;
42602;SDS011;28233;55.748;48.752;2022-12-18T01:20:40;47.20;;;17.70;;
42602;SDS011;28233;55.748;48.752;2022-12-18T01:22:42;43.92;;;18.50;;
42602;SDS011;28233;55.748;48.752;2022-12-18T01:24:45;85.93;;;23.55;;
42602;SDS011;28233;55.748;48.752;2022-12-18T01:26:48;91.05;;;22.02;;
42602;SDS011;28233;55.748;48.752;2022-12-18T01:28:50;109.45;;;24.42;;
42602;SDS011;28233;55.748;48.752;2022-12-18T01:30:53;110.22;;;22.48;;
42602;SDS011;28233;55.748;48.752;2022-12-18T01:32:56;47.38;;;18.65;;
42602;SDS011;28233;55.748;48.752;2022-12-18T01:34:58;79.45;;;20.25;;
42602;SDS011;28233;55.748;48.752;2022-12-18T01:37:02;45.10;;;16.48;;
42602;SDS011;28233;55.748;48.752;2022-12-18T01:39:07;93.18;;;24.60;;
42602;SDS011;28233;55.748;48.752;2022-12-18T01:41:13;82.63;;;21.20;;
42602;SDS011;28233;55.748;48.752;2022-12-18T01:43:20;92.47;;;21.73;;
42602;SDS011;28233;55.748;48.752;2022-12-18T01:45:24;275.90;;;38.97;;
42602;SDS011;28233;55.748;48.752;2022-12-18T01:47:47;89.03;;;21.30;;
42602;SDS011;28233;55.748;48.752;2022-12-18T01:52:26;66.80;;;18.17;;
42602;SDS011;28233;55.748;48.752;2022-12-18T01:54:31;107.97;;;23.48;;
42602;SDS011;28233;55.748;48.752;2022-12-18T01:56:34;50.13;;;17.40;;
42602;SDS011;28233;55.748;48.752;2022-12-18T02:01:02;84.47;;;19.75;;
42602;SDS011;28233;55.748;48.752;2022-12-18T02:03:05;78.57;;;20.92;;
42602;SDS011;28233;55.748;48.752;2022-12-18T02:05:08;146.10;;;22.00;;
42602;SDS011;28233;55.748;48.752;2022-12-18T02:09:37;153.05;;;23.13;;
42602;SDS011;28233;55.748;48.752;2022-12-18T02:16:58;48.75;;;15.05;;
42602;SDS011;28233;55.748;48.752;2022-12-18T02:19:14;115.97;;;21.85;;
42602;SDS011;28233;55.748;48.752;2022-12-18T02:23:49;74.30;;;19.77;;
42602;SDS011;28233;55.748;48.752;2022-12-18T02:26:02;55.50;;;15.95;;
42602;SDS011;28233;55.748;48.752;2022-12-18T02:28:28;69.47;;;16.67;;
42602;SDS011;28233;55.748;48.752;2022-12-18T02:30:35;74.43;;;18.75;;
42602;SDS011;28233;55.748;48.752;2022-12-18T02:32:43;90.15;;;19.73;;
42602;SDS011;28233;55.748;48.752;2022-12-18T02:34:51;76.40;;;19.58;;
42602;SDS011;28233;55.748;48.752;2022-12-18T02:36:59;177.32;;;28.58;;
42602;SDS011;28233;55.748;48.752;2022-12-18T02:39:06;112.65;;;22.50;;
42602;SDS011;28233;55.748;48.752;2022-12-18T02:41:12;216.77;;;28.98;;
42602;SDS011;28233;55.748;48.752;2022-12-18T02:43:17;69.28;;;16.33;;
42602;SDS011;28233;55.748;48.752;2022-12-18T02:45:20;82.28;;;17.55;;
42602;SDS011;28233;55.748;48.752;2022-12-18T02:47:24;41.30;;;14.60;;
42602;SDS011;28233;55.748;48.752;2022-12-18T02:53:45;106.63;;;20.88;;
42602;SDS011;28233;55.748;48.752;2022-12-18T02:56:03;64.20;;;17.85;;
42602;SDS011;28233;55.748;48.752;2022-12-18T03:00:58;71.80;;;15.25;;
42602;SDS011;28233;55.748;48.752;2022-12-18T03:03:27;82.05;;;18.90;;
42602;SDS011;28233;55.748;48.752;2022-12-18T03:05:43;116.10;;;20.20;;
42602;SDS011;28233;55.748;48.752;2022-12-18T03:10:12;63.90;;;15.80;;
42602;SDS011;28233;55.748;48.752;2022-12-18T03:12:18;62.17;;;17.45;;
42602;SDS011;28233;55.748;48.752;2022-12-18T03:14:50;73.30;;;15.40;;
42602;SDS011;28233;55.748;48.752;2022-12-18T03:17:07;51.47;;;15.77;;
42602;SDS011;28233;55.748;48.752;2022-12-18T03:19:16;123.07;;;22.90;;
42602;SDS011;28233;55.748;48.752;2022-12-18T03:21:26;48.15;;;14.68;;
42602;SDS011;28233;55.748;48.752;2022-12-18T03:23:34;58.92;;;17.85;;
42602;SDS011;28233;55.748;48.752;2022-12-18T03:25:43;56.85;;;17.23;;
42602;SDS011;28233;55.748;48.752;2022-12-18T03:27:47;49.70;;;15.75;;
42602;SDS011;28233;55.748;48.752;2022-12-18T03:29:56;49.92;;;15.35;;
42602;SDS011;28233;55.748;48.752;2022-12-18T03:32:14;118.28;;;21.98;;
42602;SDS011;28233;55.748;48.752;2022-12-18T03:34:23;40.33;;;15.75;;
42602;SDS011;28233;55.748;48.752;2022-12-18T03:36:32;107.65;;;20.33;;
42602;SDS011;28233;55.748;48.752;2022-12-18T03:38:35;46.90;;;18.58;;
42602;SDS011;28233;55.748;48.752;2022-12-18T03:42:48;34.42;;;14.77;;
42602;SDS011;28233;55.748;48.752;2022-12-18T03:47:14;28.80;;;11.40;;
42602;SDS011;28233;55.748;48.752;2022-12-18T03:52:10;26.50;;;10.30;;
42602;SDS011;28233;55.748;48.752;2022-12-18T03:54:27;25.98;;;10.60;;
42602;SDS011;28233;55.748;48.752;2022-12-18T03:56:33;25.58;;;11.85;;
42602;SDS011;28233;55.748;48.752;2022-12-18T03:58:40;27.48;;;11.02;;
42602;SDS011;28233;55.748;48.752;2022-12-18T04:00:47;24.80;;;10.70;;
42602;SDS011;28233;55.748;48.752;2022-12-18T04:02:52;35.22;;;11.50;;
42602;SDS011;28233;55.748;48.752;2022-12-18T04:04:58;26.77;;;12.57;;
42602;SDS011;28233;55.748;48.752;2022-12-18T04:07:05;24.73;;;12.18;;
42602;SDS011;28233;55.748;48.752;2022-12-18T04:09:08;29.17;;;11.82;;
42602;SDS011;28233;55.748;48.752;2022-12-18T04:11:11;26.58;;;11.00;;
42602;SDS011;28233;55.748;48.752;2022-12-18T04:13:21;28.50;;;12.57;;
42602;SDS011;28233;55.748;48.752;2022-12-18T04:15:31;41.50;;;14.10;;
42602;SDS011;28233;55.748;48.752;2022-12-18T04:17:37;27.27;;;12.63;;
42602;SDS011;28233;55.748;48.752;2022-12-18T04:19:41;47.92;;;14.70;;
42602;SDS011;28233;55.748;48.752;2022-12-18T04:21:43;29.77;;;13.85;;
42602;SDS011;28233;55.748;48.752;2022-12-18T04:23:46;30.42;;;12.82;;
42602;SDS011;28233;55.748;48.752;2022-12-18T04:25:48;28.38;;;13.98;;
42602;SDS011;28233;55.748;48.752;2022-12-18T04:27:51;29.80;;;14.25;;
42602;SDS011;28233;55.748;48.752;2022-12-18T04:29:54;33.25;;;12.85;;
42602;SDS011;28233;55.748;48.752;2022-12-18T04:31:56;30.38;;;12.98;;
42602;SDS011;28233;55.748;48.752;2022-12-18T04:33:59;36.70;;;14.10;;
42602;SDS011;28233;55.748;48.752;2022-12-18T04:36:02;31.80;;;12.27;;
42602;SDS011;28233;55.748;48.752;2022-12-18T04:38:05;22.55;;;10.82;;
42602;SDS011;28233;55.748;48.752;2022-12-18T04:40:10;25.27;;;10.52;;
42602;SDS011;28233;55.748;48.752;2022-12-18T04:42:14;29.77;;;11.30;;
42602;SDS011;28233;55.748;48.752;2022-12-18T04:44:17;25.30;;;10.20;;
42602;SDS011;28233;55.748;48.752;2022-12-18T04:46:20;21.38;;;9.63;;
42602;SDS011;28233;55.748;48.752;2022-12-18T04:48:22;23.88;;;10.75;;
42602;SDS011;28233;55.748;48.752;2022-12-18T04:50:25;21.27;;;9.88;;
42602;SDS011;28233;55.748;48.752;2022-12-18T04:52:31;30.25;;;9.82;;
42602;SDS011;28233;55.748;48.752;2022-12-18T04:54:33;15.02;;;6.65;;
42602;SDS011;28233;55.748;48.752;2022-12-18T04:56:36;16.30;;;6.90;;
42602;SDS011;28233;55.748;48.752;2022-12-18T04:58:39;16.92;;;6.97;;
42602;SDS011;28233;55.748;48.752;2022-12-18T05:00:43;13.98;;;6.43;;
42602;SDS011;28233;55.748;48.752;2022-12-18T05:02:46;11.55;;;5.18;;
42602;SDS011;28233;55.748;48.752;2022-12-18T05:04:49;16.92;;;5.90;;
42602;SDS011;28233;55.748;48.752;2022-12-18T05:06:51;28.25;;;5.70;;
42602;SDS011;28233;55.748;48.752;2022-12-18T05:08:54;69.60;;;9.63;;
42602;SDS011;28233;55.748;48.752;2022-12-18T05:11:04;11.88;;;4.65;;
42602;SDS011;28233;55.748;48.752;2022-12-18T05:13:08;8.68;;;3.88;;
42602;SDS011;28233;55.748;48.752;2022-12-18T05:15:11;9.70;;;3.53;;
42602;SDS011;28233;55.748;48.752;2022-12-18T05:17:14;8.30;;;4.13;;
42602;SDS011;28233;55.748;48.752;2022-12-18T05:19:16;95.15;;;11.70;;
42602;SDS011;28233;55.748;48.752;2022-12-18T05:21:19;50.13;;;7.55;;
42602;SDS011;28233;55.748;48.752;2022-12-18T05:23:22;6.15;;;3.53;;
42602;SDS011;28233;55.748;48.752;2022-12-18T05:25:26;21.23;;;5.28;;
42602;SDS011;28233;55.748;48.752;2022-12-18T05:27:29;6.90;;;2.85;;
42602;SDS011;28233;55.748;48.752;2022-12-18T05:29:31;8.52;;;3.20;;
42602;SDS011;28233;55.748;48.752;2022-12-18T05:31:34;4.55;;;2.30;;
42602;SDS011;28233;55.748;48.752;2022-12-18T05:33:41;35.55;;;5.47;;
42602;SDS011;28233;55.748;48.752;2022-12-18T05:35:44;3.90;;;2.28;;
42602;SDS011;28233;55.748;48.752;2022-12-18T05:37:55;6.05;;;2.88;;
42602;SDS011;28233;55.748;48.752;2022-12-18T05:39:59;5.60;;;2.42;;
42602;SDS011;28233;55.748;48.752;2022-12-18T05:42:01;6.57;;;2.95;;
42602;SDS011;28233;55.748;48.752;2022-12-18T05:44:04;7.00;;;2.60;;
42602;SDS011;28233;55.748;48.752;2022-12-18T05:46:16;5.10;;;2.28;;
42602;SDS011;28233;55.748;48.752;2022-12-18T05:48:20;4.97;;;2.50;;
42602;SDS011;28233;55.748;48.752;2022-12-18T05:50:23;10.68;;;3.17;;
42602;SDS011;28233;55.748;48.752;2022-12-18T05:52:25;5.32;;;2.88;;
42602;SDS011;28233;55.748;48.752;2022-12-18T05:54:28;4.70;;;2.58;;
42602;SDS011;28233;55.748;48.752;2022-12-18T05:56:31;5.70;;;3.05;;
42602;SDS011;28233;55.748;48.752;2022-12-18T05:58:34;5.60;;;2.83;;
42602;SDS011;28233;55.748;48.752;2022-12-18T06:00:38;5.35;;;2.90;;
42602;SDS011;28233;55.748;48.752;2022-12-18T06:02:46;72.45;;;7.65;;
42602;SDS011;28233;55.748;48.752;2022-12-18T06:04:49;29.80;;;4.75;;
42602;SDS011;28233;55.748;48.752;2022-12-18T06:06:52;21.27;;;3.88;;
42602;SDS011;28233;55.748;48.752;2022-12-18T06:08:57;5.53;;;2.90;;
42602;SDS011;28233;55.748;48.752;2022-12-18T06:11:00;30.80;;;5.75;;
42602;SDS011;28233;55.748;48.752;2022-12-18T06:13:03;5.13;;;2.42;;
42602;SDS011;28233;55.748;48.752;2022-12-18T06:15:06;30.83;;;4.47;;
42602;SDS011;28233;55.748;48.752;2022-12-18T06:17:09;5.32;;;2.58;;
42602;SDS011;28233;55.748;48.752;2022-12-18T06:19:14;85.18;;;9.77;;
42602;SDS011;28233;55.748;48.752;2022-12-18T06:21:18;4.20;;;2.67;;
42602;SDS011;28233;55.748;48.752;2022-12-18T06:23:20;11.40;;;2.88;;
42602;SDS011;28233;55.748;48.752;2022-12-18T06:25:23;44.30;;;5.88;;
42602;SDS011;28233;55.748;48.752;2022-12-18T06:27:26;6.63;;;3.15;;
42602;SDS011;28233;55.748;48.752;2022-12-18T06:29:28;6.25;;;3.20;;
42602;SDS011;28233;55.748;48.752;2022-12-18T06:31:31;6.30;;;2.90;;
42602;SDS011;28233;55.748;48.752;2022-12-18T06:33:35;5.93;;;3.05;;
42602;SDS011;28233;55.748;48.752;2022-12-18T06:35:38;7.00;;;2.78;;
42602;SDS011;28233;55.748;48.752;2022-12-18T06:37:41;5.20;;;3.00;;
42602;SDS011;28233;55.748;48.752;2022-12-18T06:39:43;5.70;;;2.88;;
42602;SDS011;28233;55.748;48.752;2022-12-18T06:41:46;8.00;;;3.72;;
42602;SDS011;28233;55.748;48.752;2022-12-18T06:43:49;6.72;;;3.53;;
42602;SDS011;28233;55.748;48.752;2022-12-18T06:45:57;5.50;;;3.55;;
42602;SDS011;28233;55.748;48.752;2022-12-18T06:48:02;10.95;;;4.75;;
42602;SDS011;28233;55.748;48.752;2022-12-18T06:50:05;11.95;;;5.55;;
42602;SDS011;28233;55.748;48.752;2022-12-18T06:52:08;8.60;;;4.38;;
42602;SDS011;28233;55.748;48.752;2022-12-18T06:54:11;18.73;;;5.25;;
42602;SDS011;28233;55.748;48.752;2022-12-18T06:56:14;9.80;;;3.92;;
42602;SDS011;28233;55.748;48.752;2022-12-18T06:58:17;10.05;;;3.90;;
42602;SDS011;28233;55.748;48.752;2022-12-18T07:00:21;10.13;;;3.85;;
42602;SDS011;28233;55.748;48.752;2022-12-18T07:02:23;6.65;;;3.45;;
42602;SDS011;28233;55.748;48.752;2022-12-18T07:04:29;7.90;;;2.97;;
42602;SDS011;28233;55.748;48.752;2022-12-18T07:06:32;10.52;;;3.22;;
42602;SDS011;28233;55.748;48.752;2022-12-18T07:08:35;10.43;;;2.65;;
42602;SDS011;28233;55.748;48.752;2022-12-18T07:10:41;9.00;;;3.33;;
42602;SDS011;28233;55.748;48.752;2022-12-18T07:12:49;5.18;;;2.70;;
42602;SDS011;28233;55.748;48.752;2022-12-18T07:14:52;6.88;;;2.40;;
42602;SDS011;28233;55.748;48.752;2022-12-18T07:16:55;6.90;;;2.53;;
42602;SDS011;28233;55.748;48.752;2022-12-18T07:18:58;8.02;;;2.75;;
42602;SDS011;28233;55.748;48.752;2022-12-18T07:21:05;8.88;;;2.97;;
42602;SDS011;28233;55.748;48.752;2022-12-18T07:23:10;7.15;;;2.78;;
42602;SDS011;28233;55.748;48.752;2022-12-18T07:25:15;6.82;;;2.50;;
42602;SDS011;28233;55.748;48.752;2022-12-18T07:27:18;6.10;;;2.38;;
42602;SDS011;28233;55.748;48.752;2022-12-18T07:29:20;9.15;;;2.78;;
42602;SDS011;28233;55.748;48.752;2022-12-18T07:31:23;6.40;;;2.55;;
42602;SDS011;28233;55.748;48.752;2022-12-18T07:33:28;6.38;;;2.58;;
42602;SDS011;28233;55.748;48.752;2022-12-18T07:35:32;6.22;;;2.40;;
42602;SDS011;28233;55.748;48.752;2022-12-18T07:37:35;7.25;;;2.30;;
42602;SDS011;28233;55.748;48.752;2022-12-18T07:39:38;6.97;;;2.03;;
42602;SDS011;28233;55.748;48.752;2022-12-18T07:41:40;5.43;;;2.22;;
42602;SDS011;28233;55.748;48.752;2022-12-18T07:44:08;5.43;;;2.17;;
42602;SDS011;28233;55.748;48.752;2022-12-18T07:46:14;7.00;;;2.53;;
42602;SDS011;28233;55.748;48.752;2022-12-18T07:48:17;5.50;;;2.35;;
42602;SDS011;28233;55.748;48.752;2022-12-18T07:50:20;3.50;;;1.60;;
42602;SDS011;28233;55.748;48.752;2022-12-18T07:52:23;8.80;;;2.30;;
42602;SDS011;28233;55.748;48.752;2022-12-18T07:54:27;9.45;;;2.30;;
42602;SDS011;28233;55.748;48.752;2022-12-18T07:56:30;4.25;;;1.75;;
42602;SDS011;28233;55.748;48.752;2022-12-18T07:58:33;7.13;;;2.22;;
42602;SDS011;28233;55.748;48.752;2022-12-18T08:00:37;4.82;;;1.73;;
42602;SDS011;28233;55.748;48.752;2022-12-18T08:02:40;5.38;;;1.75;;
42602;SDS011;28233;55.748;48.752;2022-12-18T08:04:44;3.55;;;2.00;;
42602;SDS011;28233;55.748;48.752;2022-12-18T08:06:46;26.50;;;3.78;;
42602;SDS011;28233;55.748;48.752;2022-12-18T08:08:53;5.72;;;2.42;;
42602;SDS011;28233;55.748;48.752;2022-12-18T08:10:57;13.60;;;2.58;;
42602;SDS011;28233;55.748;48.752;2022-12-18T08:12:59;3.80;;;2.15;;
42602;SDS011;28233;55.748;48.752;2022-12-18T08:15:06;5.10;;;2.15;;
42602;SDS011;28233;55.748;48.752;2022-12-18T08:17:09;6.70;;;2.55;;
42602;SDS011;28233;55.748;48.752;2022-12-18T08:19:12;4.40;;;2.25;;
42602;SDS011;28233;55.748;48.752;2022-12-18T08:21:18;6.55;;;2.13;;
42602;SDS011;28233;55.748;48.752;2022-12-18T08:23:25;6.45;;;2.25;;
42602;SDS011;28233;55.748;48.752;2022-12-18T08:25:43;6.78;;;3.33;;
42602;SDS011;28233;55.748;48.752;2022-12-18T08:27:46;40.83;;;5.13;;
42602;SDS011;28233;55.748;48.752;2022-12-18T08:29:48;2.28;;;1.67;;
42602;SDS011;28233;55.748;48.752;2022-12-18T08:31:51;7.72;;;2.58;;
42602;SDS011;28233;55.748;48.752;2022-12-18T08:33:54;6.38;;;2.33;;
42602;SDS011;28233;55.748;48.752;2022-12-18T08:35:58;3.63;;;1.45;;
42602;SDS011;28233;55.748;48.752;2022-12-18T08:38:01;2.63;;;1.60;;
42602;SDS011;28233;55.748;48.752;2022-12-18T08:40:04;3.55;;;1.60;;
42602;SDS011;28233;55.748;48.752;2022-12-18T08:42:07;3.38;;;1.50;;
42602;SDS011;28233;55.748;48.752;2022-12-18T08:48:45;2.40;;;1.20;;
42602;SDS011;28233;55.748;48.752;2022-12-18T08:50:55;3.75;;;1.55;;
42602;SDS011;28233;55.748;48.752;2022-12-18T08:52:59;2.28;;;1.25;;
42602;SDS011;28233;55.748;48.752;2022-12-18T08:55:02;2.17;;;1.10;;
42602;SDS011;28233;55.748;48.752;2022-12-18T08:57:06;2.60;;;1.40;;
42602;SDS011;28233;55.748;48.752;2022-12-18T08:59:09;3.10;;;1.30;;
42602;SDS011;28233;55.748;48.752;2022-12-18T09:01:21;4.50;;;1.33;;
42602;SDS011;28233;55.748;48.752;2022-12-18T09:03:25;3.30;;;2.00;;
42602;SDS011;28233;55.748;48.752;2022-12-18T09:05:29;3.80;;;1.23;;
42602;SDS011;28233;55.748;48.752;2022-12-18T09:07:32;2.65;;;1.58;;
42602;SDS011;28233;55.748;48.752;2022-12-18T09:09:35;3.88;;;1.30;;
42602;SDS011;28233;55.748;48.752;2022-12-18T09:11:38;3.15;;;1.17;;
42602;SDS011;28233;55.748;48.752;2022-12-18T09:13:41;1.85;;;1.45;;
42602;SDS011;28233;55.748;48.752;2022-12-18T09:15:45;2.88;;;1.77;;
42602;SDS011;28233;55.748;48.752;2022-12-18T09:17:49;3.00;;;1.30;;
42602;SDS011;28233;55.748;48.752;2022-12-18T09:19:52;3.22;;;1.45;;
42602;SDS011;28233;55.748;48.752;2022-12-18T09:21:54;2.67;;;1.90;;
42602;SDS011;28233;55.748;48.752;2022-12-18T09:23:57;3.38;;;1.55;;
42602;SDS011;28233;55.748;48.752;2022-12-18T09:26:00;2.75;;;1.50;;
42602;SDS011;28233;55.748;48.752;2022-12-18T09:28:04;3.45;;;2.22;;
42602;SDS011;28233;55.748;48.752;2022-12-18T09:30:17;4.65;;;2.22;;
42602;SDS011;28233;55.748;48.752;2022-12-18T09:32:20;2.92;;;1.83;;
42602;SDS011;28233;55.748;48.752;2022-12-18T09:34:23;2.78;;;1.40;;
42602;SDS011;28233;55.748;48.752;2022-12-18T09:36:26;3.42;;;1.73;;
42602;SDS011;28233;55.748;48.752;2022-12-18T09:38:29;3.97;;;1.65;;
42602;SDS011;28233;55.748;48.752;2022-12-18T09:40:36;3.22;;;2.03;;
42602;SDS011;28233;55.748;48.752;2022-12-18T09:42:44;4.43;;;1.73;;
42602;SDS011;28233;55.748;48.752;2022-12-18T09:44:53;3.15;;;1.98;;
42602;SDS011;28233;55.748;48.752;2022-12-18T09:49:12;2.50;;;1.60;;
42602;SDS011;28233;55.748;48.752;2022-12-18T09:51:20;3.17;;;1.92;;
42602;SDS011;28233;55.748;48.752;2022-12-18T09:53:27;4.15;;;1.90;;
42602;SDS011;28233;55.748;48.752;2022-12-18T09:55:38;3.67;;;1.70;;
42602;SDS011;28233;55.748;48.752;2022-12-18T09:57:45;2.85;;;1.42;;
42602;SDS011;28233;55.748;48.752;2022-12-18T09:59:54;3.80;;;2.10;;
42602;SDS011;28233;55.748;48.752;2022-12-18T10:02:23;3.25;;;1.95;;
42602;SDS011;28233;55.748;48.752;2022-12-18T10:04:29;3.95;;;2.03;;
42602;SDS011;28233;55.748;48.752;2022-12-18T10:06:36;4.78;;;2.63;;
42602;SDS011;28233;55.748;48.752;2022-12-18T10:08:46;4.40;;;2.42;;
42602;SDS011;28233;55.748;48.752;2022-12-18T10:10:57;4.90;;;2.70;;
42602;SDS011;28233;55.748;48.752;2022-12-18T10:16:29;4.57;;;2.47;;
42602;SDS011;28233;55.748;48.752;2022-12-18T10:18:25;4.18;;;1.85;;
42602;SDS011;28233;55.748;48.752;2022-12-18T10:20:49;4.00;;;2.35;;
42602;SDS011;28233;55.748;48.752;2022-12-18T10:23:17;3.47;;;2.00;;
42602;SDS011;28233;55.748;48.752;2022-12-18T10:28:11;5.32;;;2.30;;
42602;SDS011;28233;55.748;48.752;2022-12-18T10:30:17;5.30;;;3.10;;
42602;SDS011;28233;55.748;48.752;2022-12-18T10:32:27;4.55;;;3.03;;
42602;SDS011;28233;55.748;48.752;2022-12-18T10:34:31;5.65;;;3.38;;
42602;SDS011;28233;55.748;48.752;2022-12-18T10:36:34;5.90;;;3.10;;
42602;SDS011;28233;55.748;48.752;2022-12-18T10:38:37;16.83;;;4.75;;
42602;SDS011;28233;55.748;48.752;2022-12-18T10:45:29;8.25;;;4.68;;
42602;SDS011;28233;55.748;48.752;2022-12-18T10:47:32;7.68;;;4.20;;
42602;SDS011;28233;55.748;48.752;2022-12-18T10:49:36;8.07;;;4.32;;
42602;SDS011;28233;55.748;48.752;2022-12-18T10:51:44;9.13;;;4.35;;
42602;SDS011;28233;55.748;48.752;2022-12-18T10:53:51;8.88;;;3.85;;
42602;SDS011;28233;55.748;48.752;2022-12-18T10:55:57;40.78;;;8.18;;
42602;SDS011;28233;55.748;48.752;2022-12-18T11:00:37;9.98;;;4.65;;
42602;SDS011;28233;55.748;48.752;2022-12-18T11:02:39;10.90;;;5.45;;
42602;SDS011;28233;55.748;48.752;2022-12-18T11:04:49;8.25;;;5.30;;
42602;SDS011;28233;55.748;48.752;2022-12-18T11:07:03;10.63;;;4.72;;
42602;SDS011;28233;55.748;48.752;2022-12-18T11:09:25;13.18;;;5.47;;
42602;SDS011;28233;55.748;48.752;2022-12-18T11:11:33;11.63;;;4.80;;
42602;SDS011;28233;55.748;48.752;2022-12-18T11:13:36;7.68;;;4.30;;
42602;SDS011;28233;55.748;48.752;2022-12-18T11:15:39;11.20;;;4.97;;
42602;SDS011;28233;55.748;48.752;2022-12-18T11:17:42;8.65;;;4.30;;
42602;SDS011;28233;55.748;48.752;2022-12-18T11:19:51;9.68;;;4.22;;
42602;SDS011;28233;55.748;48.752;2022-12-18T11:22:19;10.98;;;5.30;;
42602;SDS011;28233;55.748;48.752;2022-12-18T11:24:32;7.20;;;3.85;;
42602;SDS011;28233;55.748;48.752;2022-12-18T11:30:47;8.82;;;4.20;;
42602;SDS011;28233;55.748;48.752;2022-12-18T11:35:20;8.65;;;4.53;;
42602;SDS011;28233;55.748;48.752;2022-12-18T11:37:29;7.25;;;4.57;;
42602;SDS011;28233;55.748;48.752;2022-12-18T11:39:35;10.35;;;4.32;;
42602;SDS011;28233;55.748;48.752;2022-12-18T11:41:45;9.15;;;5.10;;
42602;SDS011;28233;55.748;48.752;2022-12-18T11:44:19;26.52;;;5.28;;
42602;SDS011;28233;55.748;48.752;2022-12-18T11:46:38;9.82;;;4.85;;
42602;SDS011;28233;55.748;48.752;2022-12-18T11:48:58;8.43;;;4.78;;
42602;SDS011;28233;55.748;48.752;2022-12-18T11:51:10;9.85;;;4.97;;
42602;SDS011;28233;55.748;48.752;2022-12-18T11:53:28;11.32;;;5.18;;
42602;SDS011;28233;55.748;48.752;2022-12-18T11:55:44;12.88;;;6.20;;
42602;SDS011;28233;55.748;48.752;2022-12-18T12:06:57;9.13;;;5.18;;
42602;SDS011;28233;55.748;48.752;2022-12-18T12:09:27;11.07;;;4.90;;
42602;SDS011;28233;55.748;48.752;2022-12-18T12:11:50;10.50;;;5.53;;
42602;SDS011;28233;55.748;48.752;2022-12-18T12:14:04;12.10;;;5.68;;
42602;SDS011;28233;55.748;48.752;2022-12-18T12:18:43;9.65;;;4.63;;
42602;SDS011;28233;55.748;48.752;2022-12-18T12:21:07;17.33;;;6.50;;
42602;SDS011;28233;55.748;48.752;2022-12-18T12:28:11;12.93;;;5.50;;
42602;SDS011;28233;55.748;48.752;2022-12-18T12:37:54;12.88;;;6.25;;
42602;SDS011;28233;55.748;48.752;2022-12-18T12:40:01;15.73;;;6.35;;
42602;SDS011;28233;55.748;48.752;2022-12-18T12:42:32;17.67;;;5.82;;
42602;SDS011;28233;55.748;48.752;2022-12-18T12:45:03;10.07;;;5.45;;
42602;SDS011;28233;55.748;48.752;2022-12-18T12:49:46;10.25;;;5.22;;
42602;SDS011;28233;55.748;48.752;2022-12-18T12:51:55;9.68;;;5.28;;
42602;SDS011;28233;55.748;48.752;2022-12-18T12:54:20;34.25;;;7.40;;
42602;SDS011;28233;55.748;48.752;2022-12-18T12:56:43;33.20;;;6.72;;
42602;SDS011;28233;55.748;48.752;2022-12-18T12:59:10;11.07;;;5.32;;
42602;SDS011;28233;55.748;48.752;2022-12-18T13:04:17;11.77;;;5.70;;
42602;SDS011;28233;55.748;48.752;2022-12-18T13:08:56;16.52;;;7.32;;
42602;SDS011;28233;55.748;48.752;2022-12-18T13:11:00;16.48;;;6.80;;
42602;SDS011;28233;55.748;48.752;2022-12-18T13:13:22;19.25;;;7.38;;
42602;SDS011;28233;55.748;48.752;2022-12-18T13:17:48;20.15;;;6.40;;
42602;SDS011;28233;55.748;48.752;2022-12-18T13:22:21;14.98;;;6.22;;
42602;SDS011;28233;55.748;48.752;2022-12-18T13:24:27;14.10;;;7.20;;
42602;SDS011;28233;55.748;48.752;2022-12-18T13:26:33;9.10;;;5.78;;
42602;SDS011;28233;55.748;48.752;2022-12-18T13:39:43;27.88;;;7.47;;
42602;SDS011;28233;55.748;48.752;2022-12-18T13:41:50;46.17;;;7.93;;
42602;SDS011;28233;55.748;48.752;2022-12-18T13:44:07;26.80;;;7.75;;
42602;SDS011;28233;55.748;48.752;2022-12-18T13:46:21;46.67;;;8.23;;
42602;SDS011;28233;55.748;48.752;2022-12-18T13:48:28;37.00;;;7.93;;
42602;SDS011;28233;55.748;48.752;2022-12-18T13:50:34;24.63;;;8.25;;
42602;SDS011;28233;55.748;48.752;2022-12-18T13:52:37;37.58;;;9.68;;
42602;SDS011;28233;55.748;48.752;2022-12-18T13:54:42;35.17;;;7.03;;
42602;SDS011;28233;55.748;48.752;2022-12-18T13:56:51;17.45;;;7.10;;
42602;SDS011;28233;55.748;48.752;2022-12-18T13:59:05;35.33;;;7.93;;
42602;SDS011;28233;55.748;48.752;2022-12-18T14:01:21;20.98;;;7.13;;
42602;SDS011;28233;55.748;48.752;2022-12-18T14:03:26;16.33;;;5.97;;
42602;SDS011;28233;55.748;48.752;2022-12-18T14:05:31;17.20;;;7.25;;
42602;SDS011;28233;55.748;48.752;2022-12-18T14:07:39;18.27;;;6.60;;